Date,TemperatureHighF,TemperatureAvgF,TemperatureLowF,DewpointHighF,DewpointAvgF,DewpointLowF,HumidityHigh,HumidityAvg,HumidityLow,PressureMaxIn,PressureMinIn,WindSpeedMaxMPH,WindSpeedAvgMPH,GustSpeedMaxMPH,PrecipitationSumIn
2013-4-19,61,60,60,39,38,37,45,44,43,30.19,30.06,0,0,0,0.00
2013-4-20,61,60,60,40,39,38,46,45,44,30.28,30.20,0,0,0,0.00
2013-4-21,69,61,60,44,39,38,46,45,40,30.37,30.24,0,0,0,0.18
2013-4-22,68,66,64,43,41,40,42,40,38,30.53,30.38,0,0,0,0.00
2013-4-23,67,64,62,40,38,31,41,38,29,30.43,30.25,0,0,0,0.00
2013-4-24,67,65,63,41,39,37,40,38,36,30.32,30.06,0,0,0,0.00
2013-4-25,68,64,62,44,40,36,43,41,39,30.14,30.04,0,0,0,0.39
2013-4-26,68,68,68,44,44,44,41,41,41,30.15,30.15,0,0,0,0.00
2013-4-27,69,66,63,36,33,30,30,30,28,28.07,27.97,0,0,0,0.00
2013-4-28,67,66,66,38,35,34,34,31,31,28.02,28.00,0,0,1,0.31
2013-5-21,74,72,71,47,45,44,38,38,37,29.91,29.78,0,0,0,0.00
2013-5-22,72,70,68,45,43,41,38,37,37,29.94,29.85,0,0,0,0.00
2013-5-23,70,69,66,45,42,41,41,39,37,30.06,27.10,0,0,0,0.00
2013-5-24,68,62,47,42,38,33,61,42,32,27.93,27.88,4,1,6,0.11
2013-5-25,64,54,43,39,35,32,68,51,35,27.93,27.89,4,1,6,0.00
2013-5-26,65,54,46,47,40,37,77,61,42,27.91,27.87,4,1,7,0.00
2013-5-27,50,48,46,40,38,37,76,69,61,27.88,27.80,2,1,3,0.00
2013-6-9,74,62,52,39,33,26,55,35,17,27.95,27.84,10,3,16,0.00
2013-6-10,80,63,48,38,33,28,55,35,16,27.89,27.70,9,3,14,0.00
2013-6-11,67,59,49,39,34,28,55,40,24,27.98,27.77,11,5,18,0.00
2013-6-12,70,57,45,35,32,29,61,41,25,28.01,27.94,6,3,10,0.00
2013-6-13,71,57,46,36,34,31,59,42,27,28.07,27.98,10,3,21,0.00
2013-6-14,74,62,48,38,36,33,59,40,26,28.08,27.96,12,4,18,0.00
2013-6-15,66,52,47,40,38,37,71,58,38,27.99,27.97,2,1,3,0.00
2013-7-14,90,74,57,47,36,25,57,30,10,28.05,27.86,7,2,11,0.00
2013-7-15,90,73,56,41,33,24,45,26,10,27.99,27.87,7,2,9,0.00
2013-7-16,90,74,56,43,38,34,53,29,14,27.97,27.82,4,2,8,0.00
2013-7-17,92,79,66,52,46,38,56,32,20,28.04,27.84,8,3,14,0.00
2013-7-18,95,78,62,49,44,39,51,32,17,28.11,27.96,8,2,12,0.00
2013-7-19,96,79,64,45,38,25,43,26,10,28.04,27.89,9,3,18,0.00
2013-7-20,94,77,65,46,39,22,44,28,10,27.94,27.82,10,4,16,0.02
2013-7-21,96,78,65,45,38,32,33,25,12,27.83,27.73,10,4,21,0.00
2013-7-22,93,79,66,49,43,35,44,29,13,27.91,27.79,11,4,19,0.00
2013-7-23,100,82,65,49,43,35,52,30,12,27.97,27.84,7,3,11,0.00
2013-7-24,98,82,67,47,41,31,46,27,11,27.96,27.86,7,3,11,0.00
2013-7-25,97,80,66,47,38,28,44,26,10,27.98,27.92,9,3,12,0.00
2013-7-26,96,80,65,40,34,28,35,20,10,28.03,27.93,11,4,19,0.00
2013-7-27,88,75,66,40,34,27,38,24,11,27.99,27.84,8,4,13,0.00
2013-7-28,87,72,60,44,37,31,47,30,15,27.87,27.76,9,4,13,0.00
2013-7-29,90,73,59,49,43,37,63,38,16,27.91,27.81,5,2,10,0.00
2013-7-30,94,76,62,51,42,31,55,34,11,28.03,27.92,4,2,8,0.00
2013-7-31,86,73,62,51,47,41,60,41,22,28.05,27.93,5,2,9,0.00
2013-8-1,86,70,62,50,48,44,55,47,27,27.95,27.81,7,2,14,0.00
2013-8-2,75,64,55,53,49,46,89,59,39,28.02,27.91,8,4,14,0.13
2013-8-3,83,69,57,54,50,46,67,52,34,28.06,27.96,8,2,11,0.00
2013-8-4,91,72,60,58,53,50,79,56,28,28.02,27.89,6,2,10,0.12
2013-8-5,84,68,60,58,55,53,83,66,38,27.96,27.93,3,1,5,0.00
2013-8-6,96,80,65,46,40,31,43,26,12,27.93,27.82,6,2,10,0.00
2013-8-7,94,79,65,45,40,34,36,26,15,27.91,27.82,8,3,17,0.00
2013-8-8,96,79,66,54,45,40,50,33,15,27.93,27.82,8,3,14,0.00
2013-8-9,98,81,67,60,51,44,69,38,18,27.89,27.75,6,2,10,0.22
2013-8-10,91,75,62,62,56,48,88,56,27,27.96,27.82,6,2,11,0.15
2013-8-11,86,69,59,58,55,50,90,64,31,27.97,27.86,6,3,11,0.08
2013-8-12,88,72,59,54,52,47,77,52,24,27.98,27.86,6,2,12,0.00
2013-8-13,93,75,62,53,48,42,66,42,18,28.01,27.89,5,2,10,0.00
2013-8-14,90,75,63,51,47,44,60,39,23,27.93,27.82,8,2,14,0.00
2013-8-15,81,72,65,57,52,46,61,49,39,27.94,27.87,8,2,12,0.00
2013-8-16,90,72,59,51,49,44,70,46,26,27.96,27.88,4,2,7,0.00
2013-8-17,82,72,64,51,47,44,58,43,27,27.98,27.91,8,3,14,0.00
2013-8-18,87,72,60,48,46,43,61,42,22,28.03,27.91,10,4,15,0.00
2013-8-19,81,70,60,49,45,40,59,43,28,27.99,27.95,12,3,22,0.00
2013-8-20,86,71,61,46,41,34,57,37,16,28.03,27.93,8,3,14,0.00
2013-8-21,88,71,54,45,40,37,58,35,18,28.07,27.91,5,2,8,0.00
2013-8-22,87,73,59,45,41,35,51,33,16,27.94,27.77,4,1,7,0.00
2013-8-23,83,72,60,57,50,43,81,48,32,27.81,27.74,8,3,11,0.08
2013-8-24,78,68,59,47,45,44,60,46,30,27.83,27.74,6,2,10,0.00
2013-8-25,77,66,59,51,45,40,64,47,30,27.88,27.78,7,2,11,0.01
2013-8-26,75,65,57,57,50,47,73,59,45,27.91,27.81,6,2,12,0.06
2013-8-27,82,68,55,53,50,48,80,55,33,27.93,27.78,4,1,7,0.00
2013-8-28,81,70,61,60,53,49,80,57,34,27.88,27.78,7,2,12,0.01
2013-8-29,76,67,62,60,55,52,89,65,46,27.98,27.86,9,2,14,0.28
2013-8-30,79,67,58,56,49,44,90,56,31,28.08,27.96,8,3,14,0.00
2013-8-31,87,68,51,50,45,42,78,47,23,28.06,27.87,6,2,10,0.00
2013-9-1,94,75,58,55,47,40,65,41,18,27.89,27.71,5,2,7,0.00
2013-9-2,88,75,64,55,50,44,61,44,23,27.87,27.75,7,3,12,0.00
2013-9-3,86,72,63,56,53,50,69,53,36,27.95,27.86,8,2,13,0.00
2013-9-4,90,74,62,54,52,49,65,48,29,27.96,27.86,6,2,8,0.00
2013-9-5,84,71,59,60,55,52,96,60,38,27.96,27.78,8,2,13,0.69
2013-9-6,70,60,56,59,56,53,98,86,56,28.06,27.89,3,1,5,0.21
2013-9-7,65,59,55,57,55,54,97,89,71,28.06,28.00,4,1,6,0.02
2013-9-8,85,67,53,56,53,51,96,65,32,28.04,27.92,4,2,7,0.00
2013-9-9,91,73,61,55,49,45,63,45,24,27.96,27.87,6,2,8,0.00
2013-9-10,92,73,57,54,50,46,70,46,23,28.01,27.92,4,1,7,0.00
2013-9-11,96,75,60,55,50,47,67,43,22,28.04,27.95,3,1,6,0.00
2013-9-12,98,78,62,55,49,44,59,38,19,28.00,27.84,4,1,8,0.00
2013-9-13,98,80,70,53,50,47,49,36,20,27.86,27.72,7,2,12,0.00
2013-9-14,95,78,64,56,52,48,60,41,24,27.86,27.76,4,1,8,0.00
2013-9-15,90,76,61,57,50,47,85,43,24,27.78,27.60,4,1,8,0.08
2013-9-16,74,64,58,54,49,44,82,59,39,27.82,27.71,8,3,14,0.00
2013-9-17,67,59,54,46,44,39,71,57,43,27.81,27.69,9,3,18,0.00
2013-9-18,69,58,51,40,37,33,58,46,29,28.01,27.78,10,3,14,0.00
2013-9-19,73,56,42,40,36,33,75,49,26,28.03,27.87,5,2,12,0.00
2013-9-20,78,60,46,43,39,35,68,47,26,27.86,27.56,4,1,8,0.00
2013-9-21,73,62,55,45,41,36,66,47,27,27.64,27.57,8,2,14,0.00
2013-9-22,63,53,45,48,42,37,89,67,39,27.67,27.57,9,2,11,0.04
2013-9-23,61,51,44,44,42,40,92,72,53,27.87,27.67,5,1,9,0.00
2013-9-24,62,52,47,41,36,33,73,56,37,27.86,27.72,7,2,11,0.00
2013-9-25,68,54,45,38,35,29,69,52,26,27.89,27.75,6,2,11,0.00
2013-9-26,66,52,46,38,36,34,70,55,31,28.01,27.89,6,2,10,0.00
2013-9-27,55,48,45,44,38,33,89,67,47,28.01,27.82,5,2,10,0.01
2013-9-28,52,47,44,51,45,42,98,93,84,27.81,27.36,4,1,6,0.59
2013-9-29,60,48,42,48,43,40,96,83,46,27.54,27.29,5,2,9,0.25
2013-9-30,51,43,39,44,39,34,98,85,67,27.83,27.32,6,2,10,0.41
2013-10-1,58,45,37,40,36,29,94,72,41,28.03,27.84,6,2,8,0.02
2013-10-2,51,44,40,42,38,34,96,79,59,28.04,27.97,3,1,6,0.04
2013-10-3,62,47,38,40,37,34,95,71,35,28.34,28.05,4,2,7,0.01
2013-10-4,64,48,34,38,35,32,92,64,35,28.41,28.30,4,1,5,0.00
2013-10-5,63,51,42,40,37,34,78,60,37,28.31,28.18,4,1,8,0.00
2013-10-6,71,52,40,43,40,37,93,66,34,28.17,27.85,2,1,4,0.00
2013-10-7,60,51,45,41,37,30,77,60,33,27.86,27.80,7,2,15,0.00
2013-10-8,55,46,43,39,35,33,78,65,43,27.96,27.82,6,2,11,0.00
2013-10-9,59,47,34,36,32,29,88,60,32,28.05,27.83,3,1,5,0.00
2013-10-10,61,51,43,34,31,28,65,48,32,27.95,27.79,11,2,18,0.00
2013-10-11,59,47,40,36,33,30,76,60,35,28.04,27.96,3,1,6,0.00
2013-10-12,58,47,44,39,36,34,76,65,44,28.09,27.95,3,1,4,0.00
2013-10-13,66,48,38,37,34,32,84,63,31,28.25,28.09,3,1,6,0.00
2013-10-14,64,48,36,36,32,27,88,58,27,28.33,28.24,4,1,7,0.00
2013-10-15,60,47,36,35,32,29,81,58,37,28.33,28.08,3,1,6,0.00
2013-10-16,67,52,42,39,36,34,75,57,32,28.13,28.05,3,1,4,0.00
2013-10-17,68,50,40,40,36,34,85,63,31,28.19,28.13,4,1,5,0.00
2013-10-18,67,49,39,38,36,34,84,62,32,28.20,28.09,4,1,5,0.00
2013-10-19,67,49,39,41,38,35,87,66,35,28.09,28.02,2,1,4,0.00
2013-10-20,75,56,45,41,36,33,70,50,23,28.09,28.03,3,1,5,0.00
2013-10-21,75,56,46,42,38,36,72,53,28,28.13,28.07,4,1,6,0.00
2013-10-22,72,54,45,43,40,38,80,64,34,28.12,28.03,4,1,6,0.00
2013-10-23,71,52,43,43,41,38,83,67,36,28.09,28.03,2,1,4,0.00
2013-10-24,70,50,42,44,40,37,86,69,39,28.07,28.00,4,1,4,0.00
2013-10-25,65,50,41,42,40,37,89,70,43,28.19,28.05,3,1,5,0.00
2013-10-26,66,49,39,43,40,36,91,74,42,28.23,27.99,2,1,4,0.00
2013-10-27,56,50,47,40,36,30,76,57,43,27.97,27.74,10,2,17,0.00
2013-10-28,55,46,38,32,23,19,49,39,27,27.93,27.85,6,2,13,0.00
2013-10-29,56,40,31,26,23,21,70,52,28,27.94,27.88,5,1,8,0.00
2013-10-30,57,40,32,31,27,24,76,61,37,27.97,27.90,4,1,5,0.00
2013-10-31,60,50,45,38,35,30,72,57,38,28.10,27.93,7,2,12,0.00
2013-11-1,58,49,44,37,34,30,66,56,43,28.15,27.84,7,2,10,0.00
2013-11-2,50,43,36,44,37,34,96,83,56,27.82,27.46,10,2,16,0.30
2013-11-3,44,38,32,34,27,21,95,68,40,27.95,27.71,11,2,15,0.01
2013-11-4,44,35,29,23,21,17,72,57,34,28.04,27.95,3,1,5,0.00
2013-11-5,39,34,31,30,28,24,94,79,66,28.10,27.99,4,1,8,0.00
2013-11-6,36,33,29,33,31,28,98,92,84,28.25,28.11,4,1,7,0.04
2013-11-7,38,34,32,34,33,31,98,96,87,28.13,27.70,2,0,2,0.15
2013-11-8,48,39,35,38,34,30,99,84,55,28.05,27.81,2,1,4,0.11
2013-11-9,39,35,31,34,32,29,96,88,77,28.09,28.04,3,1,4,0.13
2013-11-10,41,38,34,38,36,33,98,96,87,28.17,28.04,2,0,2,0.01
2013-11-11,45,42,39,41,39,38,98,92,86,28.26,28.16,3,0,4,0.00
2013-11-12,47,43,41,43,41,39,99,94,85,28.24,28.13,2,0,4,0.11
2013-11-13,53,43,38,43,39,33,99,86,60,28.27,28.15,5,1,14,0.01
2013-11-14,50,43,39,35,31,27,71,63,46,28.13,27.87,4,1,6,0.00
2013-11-15,47,40,35,34,28,25,95,62,45,27.86,27.19,4,1,8,0.01
2013-11-16,45,37,33,34,28,24,96,72,45,27.58,27.20,5,2,10,0.05
2013-11-17,38,35,32,34,30,24,91,81,68,27.76,27.59,4,1,6,0.00
2013-11-18,47,41,36,40,38,34,96,87,74,27.75,27.53,4,1,6,0.17
2013-11-19,45,39,34,42,30,20,98,73,48,27.82,27.45,10,2,17,0.05
2013-11-20,35,28,23,21,15,10,71,56,41,28.33,27.84,4,1,6,0.00
2013-11-21,31,23,18,15,14,11,80,66,48,28.53,28.34,4,1,4,0.00
2013-11-22,32,24,19,17,14,12,80,67,47,28.63,28.52,4,1,8,0.00
2013-11-23,33,25,20,18,14,12,77,63,46,28.51,28.23,2,1,4,0.00
2013-11-24,36,29,23,19,16,13,70,59,50,28.27,28.18,2,1,3,0.00
2013-11-25,37,30,25,22,20,17,74,65,52,28.33,28.27,2,1,3,0.00
2013-11-26,37,30,27,24,22,20,79,72,58,28.27,28.09,2,1,3,0.00
2013-11-27,38,31,26,27,25,22,86,79,66,28.10,28.03,2,0,3,0.00
2013-11-28,37,30,26,28,25,23,94,84,68,28.11,28.04,4,1,5,0.00
2013-11-29,29,27,24,28,26,23,98,97,95,28.17,28.10,2,1,4,0.00
2013-11-30,32,29,26,31,28,26,98,97,94,28.18,28.02,3,0,4,0.00
2013-12-1,41,34,29,39,34,28,99,97,64,28.02,27.55,11,1,16,0.22
2013-12-2,42,31,28,31,26,19,97,81,55,27.90,27.56,8,2,14,0.00
2013-12-3,28,23,17,20,16,10,88,74,53,28.16,27.91,4,1,10,0.00
2013-12-4,20,15,11,14,10,8,93,82,65,28.22,28.16,2,1,2,0.00
2013-12-5,18,14,11,10,7,4,86,74,61,28.16,28.11,5,1,8,0.00
2013-12-6,17,14,10,11,8,1,88,78,62,28.15,28.08,3,1,6,0.00
2013-12-7,13,7,1,2,0,-2,87,74,57,28.19,28.11,2,1,4,0.00
2013-12-8,14,9,4,7,4,0,85,79,69,28.34,28.18,2,1,4,0.00
2013-12-9,15,10,5,9,5,2,87,81,73,28.30,28.19,5,1,7,0.00
2013-12-10,20,15,10,14,10,6,87,79,71,28.29,28.18,3,1,5,0.00
2013-12-11,25,20,16,17,15,12,84,79,68,28.29,28.19,2,0,3,0.00
2013-12-12,28,23,19,21,18,16,88,83,73,28.18,28.00,4,0,5,0.00
2013-12-13,30,25,20,25,22,19,96,88,77,28.28,28.04,3,1,4,0.00
2013-12-14,35,28,25,28,24,22,93,85,74,28.28,28.14,3,1,5,0.00
2013-12-15,48,39,25,36,31,24,96,75,56,28.18,28.08,4,2,8,0.12
2013-12-16,46,40,31,31,28,26,88,64,48,28.30,28.19,4,2,10,0.00
2013-12-17,42,29,23,34,27,22,97,91,69,28.18,27.86,6,1,8,0.01
2013-12-18,42,38,27,32,23,14,70,55,42,27.98,27.80,6,2,16,0.00
2013-12-19,33,26,22,18,16,13,75,64,47,28.15,27.95,4,1,4,0.00
2013-12-20,26,22,19,23,16,11,94,77,53,27.94,27.53,3,1,5,0.00
2013-12-21,26,22,20,23,20,18,96,93,90,28.00,27.70,4,1,5,0.00
2013-12-22,28,24,21,26,23,20,96,94,90,28.15,28.00,2,0,2,0.00
2013-12-23,44,33,24,35,27,24,97,82,50,28.27,27.89,11,2,18,0.14
2013-12-24,41,35,27,25,24,22,84,64,50,28.39,28.28,4,2,8,0.00
2013-12-25,30,26,22,25,23,21,96,90,82,28.40,28.28,3,1,4,0.00
2013-12-26,34,28,24,28,25,23,97,92,78,28.27,28.17,4,1,7,0.00
2013-12-27,37,28,25,33,27,25,98,96,76,28.17,27.96,3,1,5,0.00
2013-12-28,42,34,22,30,27,20,95,75,58,28.34,28.15,2,1,4,0.00
2013-12-29,41,26,21,32,24,20,97,91,66,28.30,28.12,6,1,8,0.00
2013-12-30,30,27,24,29,26,24,97,96,92,28.18,28.00,3,1,5,0.00
2013-12-31,48,38,29,33,29,26,97,74,46,28.21,28.00,4,1,6,0.01
2014-1-1,36,27,22,28,25,21,98,94,71,28.30,28.21,3,0,6,0.00
2014-1-2,36,29,24,36,28,23,99,97,92,28.21,27.72,4,0,4,0.06